createdAt,value
2023-04-07T00:00:06.756Z,3.16
2023-04-07T03:00:35.104Z,4.72
2023-04-07T03:03:14.053Z,4.76
2023-04-07T03:05:45.882Z,4.76
2023-04-07T03:08:14.742Z,4.76
2023-04-07T03:10:44.267Z,4.76
2023-04-07T03:13:16.512Z,4.75
2023-04-07T03:15:45.926Z,4.73
2023-04-07T03:18:17.018Z,4.66
2023-04-07T03:20:48.505Z,4.65
2023-04-07T03:23:17.948Z,4.65
2023-04-07T03:25:47.552Z,4.64
2023-04-07T03:28:17.154Z,4.65
2023-04-07T03:30:46.198Z,4.66
2023-04-07T03:33:14.673Z,4.69
2023-04-07T03:35:43.313Z,4.71
2023-04-07T03:38:12.990Z,4.71
2023-04-07T03:40:41.599Z,4.71
2023-04-07T03:43:14.466Z,4.73
2023-04-07T03:45:43.634Z,4.75
2023-04-07T03:48:13.066Z,4.77
2023-04-07T03:50:49.832Z,4.80
2023-04-07T03:53:20.133Z,4.81
2023-04-07T03:55:48.940Z,4.76
2023-04-07T03:58:42.985Z,4.76
2023-04-07T04:01:14.341Z,4.78
2023-04-07T04:03:44.231Z,4.77
2023-04-07T04:06:39.278Z,4.81
2023-04-07T04:09:27.270Z,4.82
2023-04-07T04:11:56.565Z,4.82
2023-04-07T04:14:25.687Z,4.83
2023-04-07T04:16:58.508Z,4.88
2023-04-07T04:19:53.120Z,4.92
2023-04-07T04:22:42.210Z,4.94
2023-04-07T04:25:11.195Z,4.93
2023-04-07T04:27:41.398Z,4.94
2023-04-07T04:30:16.905Z,4.97
2023-04-07T04:32:51.729Z,4.98
2023-04-07T04:35:24.501Z,5.02
2023-04-07T04:38:03.555Z,5.06
2023-04-07T04:40:32.819Z,5.08
2023-04-07T04:43:02.031Z,5.10
2023-04-07T04:45:31.940Z,5.13
2023-04-07T04:48:00.982Z,5.17
2023-04-07T04:50:29.605Z,5.18
2023-04-07T04:52:58.166Z,5.19
2023-04-07T04:55:26.728Z,5.20
2023-04-07T04:57:56.216Z,5.23
2023-04-07T05:00:33.014Z,5.25
2023-04-07T05:03:04.772Z,5.29
2023-04-07T05:05:36.598Z,5.29
2023-04-07T05:08:07.009Z,5.31
2023-04-07T05:10:39.745Z,5.32
2023-04-07T05:13:10.477Z,5.36
2023-04-07T05:15:41.670Z,5.43
2023-04-07T05:18:12.301Z,5.48
2023-04-07T05:20:42.281Z,5.48
2023-04-07T05:23:11.748Z,5.49
2023-04-07T05:25:41.046Z,5.50
2023-04-07T05:28:10.600Z,5.52
2023-04-07T05:30:39.834Z,5.55
2023-04-07T05:33:09.213Z,5.59
2023-04-07T05:35:46.740Z,5.62
2023-04-07T05:38:17.364Z,5.67
2023-04-07T05:40:47.846Z,5.69
2023-04-07T05:43:23.144Z,5.74
2023-04-07T05:45:52.143Z,5.77
2023-04-07T05:48:22.198Z,5.80
2023-04-07T05:50:51.570Z,5.85
2023-04-07T05:53:20.362Z,5.89
2023-04-07T05:55:49.191Z,5.93
2023-04-07T05:58:27.191Z,5.98
2023-04-07T06:00:57.729Z,6.02
2023-04-07T06:03:27.146Z,6.04
2023-04-07T06:06:03.863Z,6.08
2023-04-07T06:08:32.958Z,6.12
2023-04-07T06:11:02.459Z,6.15
2023-04-07T06:13:31.290Z,6.18
2023-04-07T06:15:59.659Z,6.20
2023-04-07T06:18:28.513Z,6.25
2023-04-07T06:20:57.788Z,6.32
2023-04-07T06:23:28.081Z,6.38
2023-04-07T06:25:57.327Z,6.43
2023-04-07T06:28:29.330Z,6.49
2023-04-07T06:30:59.564Z,6.54
2023-04-07T06:33:29.038Z,6.59
2023-04-07T06:35:59.504Z,6.65
2023-04-07T06:38:28.891Z,6.73
2023-04-07T06:40:57.831Z,6.82
2023-04-07T06:43:26.144Z,6.90
2023-04-07T06:46:03.155Z,6.98
2023-04-07T06:48:31.371Z,7.06
2023-04-07T06:51:00.751Z,7.13
2023-04-07T06:53:29.175Z,7.18
2023-04-07T06:56:04.711Z,7.18
2023-04-07T06:58:33.759Z,7.21
2023-04-07T07:01:03.779Z,7.25
2023-04-07T07:03:32.845Z,7.29
2023-04-07T07:06:01.927Z,7.38
2023-04-07T07:08:31.092Z,7.49
2023-04-07T07:10:59.581Z,7.56
2023-04-07T07:13:28.767Z,7.59
2023-04-07T07:15:57.189Z,7.66
2023-04-07T07:18:25.805Z,7.70
2023-04-07T07:20:54.044Z,7.74
2023-04-07T07:23:22.334Z,7.82
2023-04-07T07:25:51.464Z,7.87
2023-04-07T07:28:21.915Z,7.99
2023-04-07T07:30:50.166Z,8.10
2023-04-07T07:33:19.039Z,8.17
2023-04-07T07:35:47.578Z,8.27
2023-04-07T07:38:16.294Z,8.35
2023-04-07T07:40:44.440Z,8.52
2023-04-07T07:43:12.750Z,8.74
2023-04-07T07:45:41.132Z,8.90
2023-04-07T07:48:09.743Z,9.00
2023-04-07T07:50:38.153Z,9.07
2023-04-07T07:53:07.107Z,9.10
2023-04-07T07:55:35.453Z,9.16
2023-04-07T07:58:03.795Z,9.21
2023-04-07T08:00:32.215Z,9.24
2023-04-07T08:03:00.822Z,9.29
2023-04-07T08:05:29.494Z,9.35
2023-04-07T08:07:58.061Z,9.33
2023-04-07T08:10:26.657Z,9.34
2023-04-07T08:12:55.389Z,9.40
2023-04-07T08:15:23.862Z,9.50
2023-04-07T08:17:54.603Z,9.56
2023-04-07T08:20:24.121Z,9.57
2023-04-07T08:22:52.590Z,9.54
2023-04-07T08:25:21.269Z,9.52
2023-04-07T08:27:50.005Z,9.47
2023-04-07T08:30:19.282Z,9.43
2023-04-07T08:32:48.121Z,9.37
2023-04-07T08:35:16.650Z,9.27
2023-04-07T08:37:44.987Z,9.21
2023-04-07T08:40:13.704Z,9.18
2023-04-07T08:42:43.726Z,9.20
2023-04-07T08:45:12.909Z,9.29
2023-04-07T08:47:44.279Z,9.31
2023-04-07T08:50:12.966Z,9.28
2023-04-07T08:52:44.679Z,9.22
2023-04-07T08:55:13.439Z,9.19
2023-04-07T08:57:42.916Z,9.16
2023-04-07T09:00:11.904Z,9.16
2023-04-07T09:02:44.084Z,9.25
2023-04-07T09:05:14.770Z,9.41
2023-04-07T09:07:46.389Z,9.48
2023-04-07T09:10:18.535Z,9.53
2023-04-07T09:12:47.644Z,9.57
2023-04-07T09:15:16.050Z,9.63
2023-04-07T09:17:44.546Z,9.70
2023-04-07T09:20:13.196Z,9.74
2023-04-07T09:22:48.302Z,9.76
2023-04-07T09:25:22.749Z,9.79
2023-04-07T09:27:58.647Z,9.73
2023-04-07T09:30:27.446Z,9.66
2023-04-07T09:32:56.659Z,9.63
2023-04-07T09:35:25.193Z,9.51
2023-04-07T09:38:07.185Z,9.43
2023-04-07T09:40:36.876Z,9.34
2023-04-07T09:43:06.446Z,9.23
2023-04-07T09:45:39.532Z,9.24
2023-04-07T09:48:09.377Z,9.40
2023-04-07T09:50:40.168Z,9.60
2023-04-07T09:53:09.593Z,9.73
2023-04-07T09:55:40.970Z,9.76
2023-04-07T09:58:13.343Z,9.84
2023-04-07T10:00:42.180Z,9.95
2023-04-07T10:03:11.042Z,10.04
2023-04-07T10:05:39.605Z,10.18
2023-04-07T10:08:08.263Z,10.27
2023-04-07T10:10:37.382Z,10.32
2023-04-07T10:13:06.828Z,10.32
2023-04-07T10:15:37.023Z,10.38
2023-04-07T10:18:07.456Z,10.46
2023-04-07T10:20:39.785Z,10.52
2023-04-07T10:23:20.430Z,10.58
2023-04-07T10:25:52.784Z,10.69
2023-04-07T10:28:23.536Z,10.77
2023-04-07T10:30:52.634Z,10.83
2023-04-07T10:33:40.100Z,10.89
2023-04-07T10:36:08.775Z,10.97
2023-04-07T10:38:37.437Z,11.04
2023-04-07T10:41:24.892Z,11.11
2023-04-07T10:43:53.530Z,11.25
2023-04-07T10:46:22.490Z,11.33
2023-04-07T10:49:23.975Z,11.32
2023-04-07T10:52:10.830Z,11.47
2023-04-07T10:54:40.360Z,11.55
2023-04-07T10:57:10.830Z,11.54
2023-04-07T10:59:41.077Z,11.52
2023-04-07T11:02:13.278Z,11.48
2023-04-07T11:04:44.368Z,11.45
2023-04-07T11:07:14.641Z,11.42
2023-04-07T11:09:43.272Z,11.48
2023-04-07T11:12:25.471Z,11.47
2023-04-07T11:14:54.215Z,11.40
2023-04-07T11:17:23.528Z,11.42
2023-04-07T11:19:55.618Z,11.49
2023-04-07T11:22:30.017Z,11.61
2023-04-07T11:24:59.157Z,11.73
2023-04-07T11:27:28.677Z,11.83
2023-04-07T11:29:57.260Z,11.89
2023-04-07T11:32:30.802Z,11.93
2023-04-07T11:35:00.210Z,12.02
2023-04-07T11:37:29.348Z,12.11
2023-04-07T11:39:59.140Z,12.14
2023-04-07T11:42:41.309Z,12.15
2023-04-07T11:45:17.964Z,12.16
2023-04-07T11:47:46.990Z,12.15
2023-04-07T11:50:16.003Z,12.17
2023-04-07T11:52:45.803Z,12.27
2023-04-07T11:55:26.871Z,12.28
2023-04-07T11:57:55.565Z,12.31
2023-04-07T12:00:24.890Z,12.34
2023-04-07T12:02:53.902Z,12.34
2023-04-07T12:05:22.964Z,12.33
2023-04-07T12:07:56.199Z,12.36
2023-04-07T12:10:28.903Z,12.35
2023-04-07T12:12:59.400Z,12.32
2023-04-07T12:15:28.697Z,12.35
2023-04-07T12:17:57.772Z,12.36
2023-04-07T12:20:27.833Z,12.43
2023-04-07T12:22:57.409Z,12.55
2023-04-07T12:25:28.192Z,12.69
2023-04-07T12:27:57.217Z,12.83
2023-04-07T12:30:26.332Z,12.96
2023-04-07T12:32:55.272Z,13.11
2023-04-07T12:35:24.876Z,13.23
2023-04-07T12:37:54.135Z,13.35
2023-04-07T12:40:23.891Z,13.43
2023-04-07T12:42:52.920Z,13.53
2023-04-07T12:45:21.705Z,13.65
2023-04-07T12:47:50.587Z,13.76
2023-04-07T12:50:19.036Z,13.88
2023-04-07T12:52:47.695Z,13.98
2023-04-07T12:55:16.591Z,14.10
2023-04-07T12:57:48.549Z,14.20
2023-04-07T13:00:17.748Z,14.32
2023-04-07T13:02:46.874Z,14.39
2023-04-07T13:05:16.170Z,14.42
2023-04-07T13:07:46.141Z,14.43
2023-04-07T13:10:16.447Z,14.46
2023-04-07T13:12:45.479Z,14.48
2023-04-07T13:15:13.959Z,14.43
2023-04-07T13:17:42.980Z,14.39
2023-04-07T13:20:11.751Z,14.28
2023-04-07T13:22:49.205Z,14.20
2023-04-07T13:25:24.548Z,14.13
2023-04-07T13:27:53.511Z,14.05
2023-04-07T13:30:22.945Z,13.94
2023-04-07T13:32:52.402Z,13.80
2023-04-07T13:35:21.661Z,13.67
2023-04-07T13:37:50.835Z,13.54
2023-04-07T13:40:19.904Z,13.44
2023-04-07T13:42:48.977Z,13.37
2023-04-07T13:45:17.412Z,13.30
2023-04-07T13:47:46.595Z,13.24
2023-04-07T13:50:16.501Z,13.20
2023-04-07T13:52:45.579Z,13.16
2023-04-07T13:55:16.754Z,13.16
2023-04-07T13:57:45.895Z,13.17
2023-04-07T14:00:15.996Z,13.16
2023-04-07T14:02:46.314Z,13.19
2023-04-07T14:05:15.448Z,13.20
2023-04-07T14:07:44.991Z,13.24
2023-04-07T14:10:13.923Z,13.31
2023-04-07T14:12:42.952Z,13.38
2023-04-07T14:15:11.349Z,13.41
2023-04-07T14:17:40.389Z,13.41
2023-04-07T14:20:09.930Z,13.45
2023-04-07T14:22:39.352Z,13.44
2023-04-07T14:25:08.275Z,13.37
2023-04-07T14:27:37.518Z,13.26
2023-04-07T14:30:06.970Z,13.20
2023-04-07T14:32:36.224Z,13.14
2023-04-07T14:35:05.481Z,13.05
2023-04-07T14:37:36.508Z,12.92
2023-04-07T14:40:05.901Z,12.90
2023-04-07T14:42:34.718Z,12.96
2023-04-07T14:45:03.015Z,13.00
2023-04-07T14:47:32.085Z,13.00
2023-04-07T14:50:00.966Z,13.04
2023-04-07T14:52:30.744Z,13.09
2023-04-07T14:55:00.466Z,13.11
2023-04-07T14:57:29.491Z,13.07
2023-04-07T14:59:58.236Z,13.07
2023-04-07T15:02:29.379Z,13.09
2023-04-07T15:04:58.773Z,13.13
2023-04-07T15:07:26.935Z,13.16
2023-04-07T15:09:56.087Z,13.16
2023-04-07T15:12:24.641Z,13.21
2023-04-07T15:14:53.413Z,13.20
2023-04-07T15:17:30.287Z,13.15
2023-04-07T15:20:10.321Z,13.16
2023-04-07T15:22:38.534Z,13.12
2023-04-07T15:25:07.436Z,13.07
2023-04-07T15:27:36.165Z,13.02
2023-04-07T15:30:04.663Z,12.98
2023-04-07T15:32:33.006Z,12.91
2023-04-07T15:35:01.363Z,12.85
2023-04-07T15:37:29.904Z,12.76
2023-04-07T15:39:58.321Z,12.73
2023-04-07T15:42:26.946Z,12.73
2023-04-07T15:44:55.661Z,12.74
2023-04-07T15:47:24.515Z,12.75
2023-04-07T15:49:53.093Z,12.76
2023-04-07T15:52:21.710Z,12.74
2023-04-07T15:54:54.161Z,12.69
2023-04-07T15:57:22.511Z,12.65
2023-04-07T15:59:52.608Z,12.62
2023-04-07T16:02:21.044Z,12.60
2023-04-07T16:04:49.521Z,12.58
2023-04-07T16:07:19.293Z,12.57
2023-04-07T16:09:48.355Z,12.54
2023-04-07T16:12:17.368Z,12.50
2023-04-07T16:14:46.454Z,12.49
2023-04-07T16:17:14.908Z,12.47
2023-04-07T16:19:43.001Z,12.46
2023-04-07T16:22:11.631Z,12.45
2023-04-07T16:24:41.059Z,12.42
2023-04-07T16:27:09.357Z,12.40
2023-04-07T16:29:37.705Z,12.37
2023-04-07T16:32:07.116Z,12.34
2023-04-07T16:34:36.383Z,12.34
2023-04-07T16:37:05.110Z,12.34
2023-04-07T16:39:34.212Z,12.34
2023-04-07T16:42:02.611Z,12.33
2023-04-07T16:44:33.117Z,12.32
2023-04-07T16:47:03.271Z,12.29
2023-04-07T16:49:32.407Z,12.26
2023-04-07T16:52:01.090Z,12.25
2023-04-07T16:54:30.354Z,12.23
2023-04-07T16:56:59.070Z,12.23
2023-04-07T16:59:27.454Z,12.20
2023-04-07T17:01:55.888Z,12.16
2023-04-07T17:04:24.360Z,12.15
2023-04-07T17:06:53.381Z,12.15
2023-04-07T17:09:21.629Z,12.15
2023-04-07T17:11:49.886Z,12.12
2023-04-07T17:14:18.419Z,12.11
2023-04-07T17:16:47.355Z,12.08
2023-04-07T17:19:16.192Z,12.02
2023-04-07T17:21:45.483Z,11.96
2023-04-07T17:24:15.864Z,11.87
2023-04-07T17:26:47.118Z,11.85
2023-04-07T17:29:15.898Z,11.87
2023-04-07T17:31:45.000Z,11.87
2023-04-07T17:34:13.358Z,11.88
2023-04-07T17:36:41.961Z,11.91
2023-04-07T17:39:10.221Z,11.92
2023-04-07T17:41:38.686Z,11.91
2023-04-07T17:44:07.116Z,11.91
2023-04-07T17:46:36.393Z,11.92
2023-04-07T17:49:04.719Z,11.91
2023-04-07T17:51:33.123Z,11.89
2023-04-07T17:54:02.519Z,11.87
2023-04-07T17:56:31.519Z,11.85
2023-04-07T17:59:00.031Z,11.83
2023-04-07T18:01:28.498Z,11.82
2023-04-07T18:03:57.522Z,11.81
2023-04-07T18:06:26.036Z,11.80
2023-04-07T18:09:07.485Z,11.76
2023-04-07T18:11:36.960Z,11.74
2023-04-07T18:14:05.463Z,11.70
2023-04-07T18:16:34.847Z,11.63
2023-04-07T18:19:04.590Z,11.56
2023-04-07T18:21:35.435Z,11.54
2023-04-07T18:24:04.008Z,11.52
2023-04-07T18:26:32.796Z,11.52
2023-04-07T18:29:02.269Z,11.49
2023-04-07T18:31:33.237Z,11.50
2023-04-07T18:34:02.750Z,11.49
2023-04-07T18:36:32.057Z,11.48
2023-04-07T18:39:01.309Z,11.50
2023-04-07T18:41:29.842Z,11.51
2023-04-07T18:43:58.836Z,11.51
2023-04-07T18:46:27.859Z,11.53
2023-04-07T18:48:56.633Z,11.51
2023-04-07T18:51:24.943Z,11.43
2023-04-07T18:53:53.435Z,11.29
2023-04-07T18:56:21.907Z,11.18
2023-04-07T18:58:51.580Z,11.14
2023-04-07T19:01:20.204Z,11.14
2023-04-07T19:03:49.234Z,11.16
2023-04-07T19:06:17.899Z,11.20
2023-04-07T19:08:46.702Z,11.25
2023-04-07T19:11:15.060Z,11.26
2023-04-07T19:13:43.687Z,11.29
2023-04-07T19:16:12.009Z,11.36
2023-04-07T19:18:40.951Z,11.38
2023-04-07T19:21:10.082Z,11.35
2023-04-07T19:23:41.058Z,11.30
2023-04-07T19:26:11.001Z,11.30
2023-04-07T19:28:41.362Z,11.32
2023-04-07T19:31:11.005Z,11.33
2023-04-07T19:33:39.311Z,11.32
2023-04-07T19:36:07.742Z,11.28
2023-04-07T19:38:36.200Z,11.31
2023-04-07T19:41:05.412Z,11.32
2023-04-07T19:43:34.941Z,11.31
2023-04-07T19:46:03.971Z,11.30
2023-04-07T19:48:33.210Z,11.32
2023-04-07T19:51:02.327Z,11.33
2023-04-07T19:53:30.989Z,11.30
2023-04-07T19:56:02.493Z,11.30
2023-04-07T19:58:32.116Z,11.29
2023-04-07T20:01:01.173Z,11.29
2023-04-07T20:03:30.600Z,11.30
2023-04-07T20:06:00.499Z,11.28
2023-04-07T20:08:29.096Z,11.26
2023-04-07T20:10:58.929Z,11.17
2023-04-07T20:13:28.407Z,11.15
2023-04-07T20:15:57.092Z,11.15
2023-04-07T20:18:25.294Z,11.11
2023-04-07T20:20:58.859Z,11.07
2023-04-07T20:23:28.034Z,11.01
2023-04-07T20:25:56.718Z,10.99
2023-04-07T20:28:26.953Z,10.98
2023-04-07T20:30:55.510Z,10.94
2023-04-07T20:33:23.971Z,10.89
2023-04-07T20:35:53.085Z,10.85
2023-04-07T20:38:21.485Z,10.83
2023-04-07T20:40:49.757Z,10.80
2023-04-07T20:43:20.851Z,10.76
2023-04-07T20:45:49.940Z,10.71
2023-04-07T20:48:24.111Z,10.68
2023-04-07T20:50:53.833Z,10.60
2023-04-07T20:53:22.305Z,10.52
2023-04-07T20:55:51.480Z,10.45
2023-04-07T20:58:20.219Z,10.38
2023-04-07T21:00:55.761Z,10.31
2023-04-07T21:03:26.110Z,10.28
2023-04-07T21:05:56.872Z,10.25
2023-04-07T21:08:25.683Z,10.19
2023-04-07T21:10:55.165Z,10.16
2023-04-07T21:13:26.348Z,10.14
2023-04-07T21:15:57.970Z,10.13
2023-04-07T21:18:27.782Z,10.15
2023-04-07T21:20:58.345Z,10.13
2023-04-07T21:23:27.294Z,10.05
2023-04-07T21:25:59.632Z,9.96
2023-04-07T21:28:27.882Z,9.90
2023-04-07T21:30:57.424Z,9.84
2023-04-07T21:33:26.408Z,9.74
2023-04-07T21:35:56.774Z,9.67
2023-04-07T21:38:27.584Z,9.56
2023-04-07T21:40:57.998Z,9.45
2023-04-07T21:43:29.393Z,9.37
2023-04-07T21:45:58.821Z,9.32
2023-04-07T21:48:27.377Z,9.27
2023-04-07T21:50:57.639Z,9.18
2023-04-07T21:53:26.363Z,9.13
2023-04-07T21:55:54.757Z,9.08
2023-04-07T21:58:23.718Z,9.03
2023-04-07T22:00:53.728Z,8.97
2023-04-07T22:03:24.567Z,8.92
2023-04-07T22:05:53.128Z,8.83
2023-04-07T22:08:21.673Z,8.77
2023-04-07T22:10:51.885Z,8.71
2023-04-07T22:13:20.961Z,8.72
2023-04-07T22:15:51.521Z,8.71
2023-04-07T22:18:22.179Z,8.68
2023-04-07T22:20:52.738Z,8.58
2023-04-07T22:23:21.317Z,8.51
2023-04-07T22:25:50.518Z,8.49
2023-04-07T22:28:19.741Z,8.46
2023-04-07T22:30:47.795Z,8.47
2023-04-07T22:33:15.916Z,8.45
2023-04-07T22:35:44.862Z,8.43
2023-04-07T22:38:13.712Z,8.39
2023-04-07T22:40:42.120Z,8.34
2023-04-07T22:43:11.202Z,8.32
2023-04-07T22:45:40.422Z,8.22
2023-04-07T22:48:09.907Z,8.13
2023-04-07T22:50:38.536Z,8.07
2023-04-07T22:53:07.596Z,8.00
2023-04-07T22:55:36.747Z,7.91
2023-04-07T22:58:06.509Z,7.86
2023-04-07T23:00:35.746Z,7.80
2023-04-07T23:03:05.119Z,7.70
2023-04-07T23:05:34.366Z,7.63
2023-04-07T23:08:04.058Z,7.57
2023-04-07T23:10:32.705Z,7.54
2023-04-07T23:13:01.819Z,7.53
2023-04-07T23:15:30.974Z,7.49
2023-04-07T23:17:59.884Z,7.46
2023-04-07T23:20:28.705Z,7.44
2023-04-07T23:22:57.389Z,7.38
2023-04-07T23:25:28.175Z,7.36
2023-04-07T23:27:57.224Z,7.34
2023-04-07T23:30:26.770Z,7.33
2023-04-07T23:32:55.102Z,7.29
2023-04-07T23:35:24.198Z,7.23
2023-04-07T23:37:53.293Z,7.17
2023-04-07T23:40:22.654Z,7.09
2023-04-07T23:42:52.027Z,7.08
2023-04-07T23:45:22.045Z,7.04
2023-04-07T23:47:51.219Z,7.04
2023-04-07T23:50:19.642Z,7.01
2023-04-07T23:52:48.641Z,6.99
2023-04-07T23:55:17.622Z,6.98
2023-04-07T23:57:47.113Z,6.93
